< Cyclone 202202 2022 Season Cyclone 202207 >
Cyclone 202205 (Teratai)
General InformationTrack Information on Google MapsDetailed Wind InformationList of All Images || ResourceGoogle EarthGE AnimationAtom FeedGeoJSON
Detalied Best Track (Time Zone = UTC)
Year Month Day Hour Lat. Long. Pressure (hPa) Wind (kt) Class Image Chart
2021 11 29 18 -6.5 101.7 1006 25 2 Image --
2021 11 30 00 -6.6 102.0 1006 25 2 Image --
2021 11 30 06 -6.8 102.4 1002 30 2 Image --
2021 11 30 12 -7.4 102.5 1000 30 2 Image --
2021 11 30 18 -8.2 102.6 999 40 3 Image --
2021 12 1 00 -8.9 102.6 998 40 3 Image --
2021 12 1 06 -9.3 102.6 996 40 3 Image --
2021 12 1 12 -9.6 102.2 998 40 3 Image --
2021 12 1 18 -9.8 101.8 1000 35 3 Image --
2021 12 2 00 -9.9 101.2 1000 35 3 Image --
2021 12 2 06 -9.7 100.9 1000 30 2 Image --
2021 12 2 12 -9.3 100.5 1002 25 2 Image --
2021 12 2 18 -9.1 99.6 1002 20 2 Image --
2021 12 3 00 -9.0 98.9 1004 20 2 Image --
2021 12 3 06 -8.9 98.4 1004 20 2 Image --
2021 12 3 12 -8.6 97.9 1004 20 2 Image --
2021 12 3 18 -8.4 97.2 1004 20 2 Image --
2021 12 4 00 -8.3 96.7 1004 20 2 Image --
2021 12 4 06 -8.2 96.7 1004 20 2 Image --
2021 12 4 12 -8.1 97.0 1004 20 2 Image --
2021 12 4 18 -7.7 97.3 1004 20 2 Image --
2021 12 5 00 -7.4 97.8 1006 15 2 Image --
2021 12 5 06 -7.3 98.5 1006 15 2 Image --
2021 12 5 12 -7.5 99.5 1006 15 2 Image --
2021 12 5 18 -7.7 100.9 1006 15 2 Image --
2021 12 6 00 -8.0 102.3 1006 15 2 Image --
2021 12 6 06 -8.5 103.5 1002 20 2 Image --
2021 12 6 12 -8.9 104.6 1002 25 2 Image --
2021 12 6 18 -9.4 105.7 1002 30 2 Image --
2021 12 7 00 -9.9 106.5 1002 35 3 Image --
2021 12 7 06 -10.5 106.6 1000 30 2 Image --
2021 12 7 12 -11.2 106.7 1000 30 2 Image --
2021 12 7 18 -11.9 106.5 1000 35 3 Image --
2021 12 8 00 -12.4 106.2 1002 35 3 Image --
2021 12 8 06 -13.0 105.6 1002 35 3 Image --
2021 12 8 12 -13.3 105.1 1002 35 3 Image --
2021 12 8 18 -13.7 104.6 1004 30 2 Image --
2021 12 9 00 -14.0 103.8 1006 30 2 Image --
2021 12 9 06 -14.2 103.1 1006 30 2 Image --
2021 12 9 12 -14.5 102.4 1006 25 2 Image --
2021 12 9 18 -14.6 101.5 1006 25 2 Image --
2021 12 10 00 -15.1 100.7 1006 25 2 Image --
2021 12 10 06 -15.6 99.6 1006 25 2 Image --
2021 12 10 12 -16.0 98.5 1006 20 2 Image --
2021 12 10 18 -16.4 97.4 1006 20 2 Image --
2021 12 11 00 -16.8 96.3 1006 20 2 Image --
2021 12 11 06 -17.4 95.2 1006 20 2 Image --
2021 12 11 12 -17.5 94.1 1008 15 2 Image --
2021 12 11 18 -17.7 92.9 1008 15 2 Image --
< Cyclone 202202 2022 Season Cyclone 202207 >

Help